Time;durP1;ratioP1;P1;durP2;ratioP2;P2;SDS_P1;SDS_P2;PMS_P1;PMS_P2;Temp;Humidity;BMP_temperature;BMP_pressure;BME280_temperature;BME280_humidity;BME280_pressure;Samples;Min_cycle;Max_cycle;Signal;HPM_P1;HPM_P2
2020/12/06 00:01:31;;;;;;;8.13;3.03;;;;;;;-5.35;45.76;101317.25;10502109;28;20045;-52
2020/12/06 00:06:34;;;;;;;7.70;2.58;;;;;;;-5.35;45.52;101317.25;10501299;28;20076;-53
2020/12/06 00:11:35;;;;;;;10.93;4.40;;;;;;;-5.37;45.41;101313.81;10500709;28;20051;-51
2020/12/06 00:16:37;;;;;;;8.23;2.35;;;;;;;-5.40;45.78;101308.66;10501291;28;20527;-52
2020/12/06 00:21:40;;;;;;;6.50;2.55;;;;;;;-5.42;45.61;101325.75;10500912;28;20045;-49
2020/12/06 00:26:42;;;;;;;9.47;2.87;;;;;;;-5.45;45.48;101323.16;10501376;28;20056;-49
2020/12/06 00:31:43;;;;;;;7.28;2.58;;;;;;;-5.47;45.49;101325.72;10499804;28;20072;-49
2020/12/06 00:36:49;;;;;;;6.85;2.75;;;;;;;-5.50;45.53;101317.16;10500601;28;20051;-50
2020/12/06 00:41:50;;;;;;;4.55;2.03;;;;;;;-5.53;45.31;101317.16;10502361;28;20477;-52
2020/12/06 00:46:52;;;;;;;5.68;1.80;;;;;;;-5.55;45.41;101317.97;10499128;28;20044;-50
2020/12/06 00:51:55;;;;;;;7.57;2.90;;;;;;;-5.55;45.03;101320.53;10498614;28;20044;-51
2020/12/06 00:56:57;;;;;;;7.55;2.78;;;;;;;-5.56;45.19;101318.81;10499039;28;20155;-53
2020/12/06 01:01:59;;;;;;;8.75;3.20;;;;;;;-5.57;45.31;101329.09;10499050;28;20048;-53
2020/12/06 01:07:02;;;;;;;4.75;1.98;;;;;;;-5.59;45.36;101323.94;10499301;28;20053;-50
2020/12/06 01:12:05;;;;;;;5.18;2.22;;;;;;;-5.60;45.20;101331.63;10499079;28;20469;-52
2020/12/06 01:17:06;;;;;;;10.65;2.83;;;;;;;-5.63;45.08;101332.44;10497603;28;20466;-51
2020/12/06 01:22:09;;;;;;;6.30;2.78;;;;;;;-5.63;45.13;101342.69;10499499;28;20467;-50
2020/12/06 01:27:10;;;;;;;6.20;2.30;;;;;;;-5.64;45.39;101342.66;10499887;28;20135;-50
2020/12/06 01:32:12;;;;;;;10.35;3.90;;;;;;;-5.64;45.15;101345.25;10500030;28;20051;-58
2020/12/06 01:37:15;;;;;;;8.15;3.25;;;;;;;-5.65;44.94;101349.50;10502347;28;20136;-50
2020/12/06 01:42:16;;;;;;;11.07;3.57;;;;;;;-5.66;45.23;101345.25;10498894;28;20485;-49
2020/12/06 01:47:19;;;;;;;10.15;3.63;;;;;;;-5.66;45.19;101346.94;10497307;28;20052;-50
2020/12/06 01:52:22;;;;;;;8.37;2.50;;;;;;;-5.71;45.26;101348.59;10498110;28;20044;-51
2020/12/06 01:57:24;;;;;;;8.52;3.90;;;;;;;-5.80;45.10;101354.50;10496666;28;20493;-52
2020/12/06 02:02:25;;;;;;;7.78;2.78;;;;;;;-5.85;45.30;101351.03;10496536;28;20044;-49
2020/12/06 02:07:31;;;;;;;8.13;3.65;;;;;;;-5.93;45.59;101352.72;10497067;28;20052;-58
2020/12/06 02:12:33;;;;;;;6.15;2.95;;;;;;;-6.00;45.63;101350.94;10497268;28;20041;-51
2020/12/06 02:17:34;;;;;;;8.63;3.15;;;;;;;-6.09;45.70;101356.88;10499001;28;20417;-52
2020/12/06 02:22:37;;;;;;;10.73;3.05;;;;;;;-6.19;45.80;101366.13;10497675;28;20045;-52
2020/12/06 02:27:39;;;;;;;7.30;3.20;;;;;;;-6.23;46.10;101371.22;10502629;28;20615;-51
2020/12/06 02:32:40;;;;;;;9.30;3.58;;;;;;;-6.28;46.07;101373.72;10505339;28;20396;-50
2020/12/06 02:37:43;;;;;;;7.35;3.20;;;;;;;-6.28;46.12;101368.59;10512241;28;20111;-50
2020/12/06 02:42:44;;;;;;;7.13;3.37;;;;;;;-6.30;46.34;101372.84;10505021;28;20420;-49
2020/12/06 02:47:46;;;;;;;5.18;2.08;;;;;;;-6.33;46.38;101378.81;10504810;28;20492;-49
2020/12/06 02:52:51;;;;;;;7.43;2.63;;;;;;;-6.38;46.40;101384.72;10504166;28;20055;-49
2020/12/06 02:57:53;;;;;;;15.73;3.70;;;;;;;-6.41;46.39;101389.78;10503456;28;20056;-48
2020/12/06 03:02:55;;;;;;;3.05;1.75;;;;;;;-6.44;46.37;101394.88;10506892;28;20057;-52
2020/12/06 03:07:57;;;;;;;2.90;1.38;;;;;;;-6.46;46.30;101396.53;10503826;28;20539;-53
2020/12/06 03:12:59;;;;;;;8.07;3.33;;;;;;;-6.43;46.34;101399.13;10503903;28;20064;-50
2020/12/06 03:18:00;;;;;;;12.50;4.47;;;;;;;-6.42;46.31;101408.56;10503748;28;20472;-49
2020/12/06 03:23:03;;;;;;;7.90;3.03;;;;;;;-6.42;46.26;101404.28;10503563;28;20048;-51
2020/12/06 03:28:05;;;;;;;5.73;2.37;;;;;;;-6.45;46.42;101403.41;10504411;28;20067;-52
2020/12/06 03:33:06;;;;;;;9.65;4.22;;;;;;;-6.47;46.25;101410.19;10504240;28;20040;-51
2020/12/06 03:38:09;;;;;;;11.93;4.47;;;;;;;-6.48;46.37;101404.22;10507294;28;20044;-50
2020/12/06 03:43:10;;;;;;;6.93;2.00;;;;;;;-6.47;46.51;101411.03;10504781;28;20133;-52
2020/12/06 03:48:12;;;;;;;7.95;3.15;;;;;;;-6.47;46.26;101415.31;10502973;28;20106;-49
2020/12/06 03:53:15;;;;;;;10.18;3.88;;;;;;;-6.51;46.32;101405.03;10500608;28;20048;-51
2020/12/06 03:58:16;;;;;;;7.83;3.50;;;;;;;-6.52;46.57;101398.22;10501845;28;20055;-53
2020/12/06 04:03:18;;;;;;;6.60;2.80;;;;;;;-6.51;46.52;101412.72;10503437;28;20110;-51
2020/12/06 04:08:20;;;;;;;3.85;1.77;;;;;;;-6.54;46.43;101414.38;10501383;28;20397;-49
2020/12/06 04:13:23;;;;;;;5.63;2.80;;;;;;;-6.51;46.32;101420.38;10501356;28;20419;-52
2020/12/06 04:18:24;;;;;;;5.20;2.22;;;;;;;-6.44;46.49;101428.13;10500482;28;20474;-52
2020/12/06 04:23:28;;;;;;;11.77;4.53;;;;;;;-6.37;46.33;101427.34;10501041;28;20064;-49
2020/12/06 04:28:30;;;;;;;16.88;4.28;;;;;;;-6.29;46.28;101431.72;10500802;28;20055;-52
2020/12/06 04:33:31;;;;;;;8.02;3.15;;;;;;;-6.28;46.32;101435.13;10498871;28;20057;-49
2020/12/06 04:38:34;;;;;;;10.15;3.35;;;;;;;-6.25;46.11;101440.28;10500939;28;20472;-52
2020/12/06 04:43:35;;;;;;;13.10;4.87;;;;;;;-6.22;45.98;101435.22;10500497;28;20048;-50
2020/12/06 04:48:56;;;;;;;11.30;4.57;;;;;;;-6.21;46.00;101444.63;10499787;28;20036;-50
2020/12/06 04:54:04;;;;;;;5.88;2.75;;;;;;;-6.22;46.23;101444.59;10499122;28;20567;-51
2020/12/06 04:59:06;;;;;;;11.98;5.25;;;;;;;-6.22;46.05;101445.44;10499700;28;20052;-49
2020/12/06 05:04:10;;;;;;;6.80;2.00;;;;;;;-6.17;45.78;101450.63;10500737;28;20362;-52
2020/12/06 05:09:14;;;;;;;10.27;4.50;;;;;;;-6.22;45.84;101454.84;10468243;28;20118;-52
2020/12/06 05:14:16;;;;;;;11.35;4.15;;;;;;;-6.26;46.00;101456.50;10486046;28;20055;-50
2020/12/06 05:19:18;;;;;;;11.35;2.75;;;;;;;-6.28;45.88;101458.16;10499636;28;20563;-48
2020/12/06 05:24:21;;;;;;;5.22;2.28;;;;;;;-6.30;45.87;101463.28;10498970;28;20087;-49
2020/12/06 05:29:22;;;;;;;2.10;1.27;;;;;;;-6.28;45.92;101468.41;10498832;28;20045;-50
2020/12/06 05:34:24;;;;;;;14.25;4.78;;;;;;;-6.28;45.98;101473.53;10499852;28;20056;-52
2020/12/06 05:39:26;;;;;;;7.63;2.85;;;;;;;-6.29;45.86;101482.06;10503368;28;20041;-51
2020/12/06 05:44:28;;;;;;;7.93;2.53;;;;;;;-6.19;45.99;101483.03;10498071;28;20052;-49
2020/12/06 05:49:33;;;;;;;8.23;3.15;;;;;;;-5.71;46.09;101486.94;10497091;28;20481;-51
2020/12/06 05:54:36;;;;;;;12.50;3.28;;;;;;;-5.15;45.67;101490.00;10496795;28;20060;-48
2020/12/06 05:59:38;;;;;;;13.02;5.38;;;;;;;-4.61;44.92;101485.25;10497081;28;20059;-49
2020/12/06 06:04:41;;;;;;;9.52;3.65;;;;;;;-3.87;44.45;101486.38;10509101;28;20062;-49
2020/12/06 06:09:49;;;;;;;14.55;4.45;;;;;;;-2.99;44.37;101492.44;10511452;28;20484;-52
2020/12/06 06:14:51;;;;;;;18.95;5.25;;;;;;;-2.10;43.33;101497.38;10510695;28;20052;-50
2020/12/06 06:19:53;;;;;;;12.40;4.68;;;;;;;-1.28;42.48;101500.34;10512177;28;20515;-51
2020/12/06 06:24:57;;;;;;;9.57;4.03;;;;;;;-0.58;40.20;101496.25;10511557;28;20397;-51
2020/12/06 06:29:58;;;;;;;9.85;4.43;;;;;;;-1.70;38.86;101497.16;10510837;28;20058;-51
2020/12/06 06:35:01;;;;;;;18.27;6.43;;;;;;;-2.56;39.30;101500.09;10510088;28;20052;-52
2020/12/06 06:40:06;;;;;;;13.48;5.35;;;;;;;-2.97;39.86;101511.34;10512679;28;20044;-53
2020/12/06 06:45:09;;;;;;;19.38;6.78;;;;;;;-3.20;40.36;101507.88;10512407;28;20140;-50
2020/12/06 06:50:12;;;;;;;9.10;3.72;;;;;;;-3.33;40.22;101507.88;10510293;28;20070;-50
2020/12/06 06:55:14;;;;;;;12.10;4.63;;;;;;;-3.49;40.52;101509.59;10510710;28;20060;-53
2020/12/06 07:00:16;;;;;;;13.30;6.10;;;;;;;-3.61;40.89;101506.13;10511080;28;20056;-50
2020/12/06 07:05:21;;;;;;;17.48;5.20;;;;;;;-3.66;40.77;101510.41;10510431;28;20143;-51
2020/12/06 07:10:27;;;;;;;11.88;5.07;;;;;;;-3.64;40.99;101513.84;10511002;28;20037;-51
2020/12/06 07:15:30;;;;;;;10.82;5.00;;;;;;;-3.21;41.52;101512.19;10504292;28;20392;-50
2020/12/06 07:20:32;;;;;;;10.98;4.10;;;;;;;-0.86;43.12;101517.19;10502504;28;20044;-54
2020/12/06 07:25:34;;;;;;;10.98;5.35;;;;;;;1.30;41.83;101509.09;10503709;28;20044;-52
2020/12/06 07:30:36;;;;;;;18.80;7.10;;;;;;;3.75;41.40;101517.31;10501517;28;20388;-54
2020/12/06 07:35:38;;;;;;;13.30;6.15;;;;;;;6.22;39.44;101503.09;10497938;28;20048;-52
2020/12/06 07:40:40;;;;;;;15.10;6.35;;;;;;;8.66;37.18;101499.53;10503801;28;20095;-51
2020/12/06 07:45:42;;;;;;;15.38;7.07;;;;;;;9.61;34.67;101497.38;10503344;28;20447;-54
2020/12/06 07:50:44;;;;;;;13.02;6.95;;;;;;;10.31;32.81;101501.47;10502495;28;20044;-51
2020/12/06 07:55:47;;;;;;;16.92;7.65;;;;;;;8.06;30.88;101504.94;10501328;28;20086;-51
2020/12/06 08:00:49;;;;;;;14.93;7.70;;;;;;;5.53;32.02;101513.41;10501433;28;20051;-51
2020/12/06 08:05:51;;;;;;;17.27;8.23;;;;;;;4.01;32.36;101509.66;10501104;28;20059;-54
2020/12/06 08:10:57;;;;;;;16.50;7.53;;;;;;;2.93;32.69;101509.06;10503706;28;20052;-52
2020/12/06 08:16:09;;;;;;;14.00;7.45;;;;;;;2.13;32.59;101517.84;10505173;28;20048;-51
2020/12/06 08:21:11;;;;;;;32.58;8.10;;;;;;;1.51;33.25;101519.94;10500852;28;20036;-53
2020/12/06 08:26:13;;;;;;;16.77;6.20;;;;;;;0.90;32.74;101520.13;10501254;28;20052;-53
2020/12/06 08:31:20;;;;;;;11.98;5.78;;;;;;;0.29;33.00;101521.03;10500303;28;20167;-54
2020/12/06 08:36:25;;;;;;;16.30;6.72;;;;;;;-0.05;33.23;101541.31;10500304;28;20102;-51
2020/12/06 08:41:28;;;;;;;17.35;8.48;;;;;;;-0.32;33.88;101545.91;10500603;28;20362;-51
2020/12/06 08:46:31;;;;;;;14.95;7.25;;;;;;;-0.36;34.12;101545.97;10501294;28;20443;-51
2020/12/06 08:51:35;;;;;;;17.50;7.55;;;;;;;0.47;35.07;101539.78;10500165;28;20370;-54
2020/12/06 08:56:39;;;;;;;13.50;6.63;;;;;;;3.26;33.09;101536.84;10499306;28;20480;-52
2020/12/06 09:01:46;;;;;;;;;;;;;;;6.49;32.92;101525.56;10499895;28;20420;-54
2020/12/06 09:06:50;;;;;;;18.48;6.68;;;;;;;8.61;29.96;101522.50;10497773;28;19924;-51
2020/12/06 09:11:53;;;;;;;31.55;9.32;;;;;;;10.67;28.65;101508.22;10498859;28;20045;-52
2020/12/06 09:16:54;;;;;;;22.03;8.00;;;;;;;11.65;25.74;101510.34;10498699;28;20053;-53
2020/12/06 09:21:56;;;;;;;17.80;7.90;;;;;;;11.86;24.99;101510.84;10497774;28;20059;-55
2020/12/06 09:26:59;;;;;;;18.38;7.82;;;;;;;12.51;24.70;101506.78;10498533;28;20045;-52
2020/12/06 09:32:01;;;;;;;23.87;7.80;;;;;;;12.63;23.77;101506.81;10497694;28;20105;-52
2020/12/06 09:37:02;;;;;;;20.65;8.27;;;;;;;12.44;22.35;101509.81;10496743;28;20056;-50
2020/12/06 09:42:05;;;;;;;17.90;8.35;;;;;;;11.68;22.34;101507.50;10498309;28;20080;-54
2020/12/06 09:47:07;;;;;;;20.88;8.70;;;;;;;10.23;22.67;101503.63;10497440;28;20139;-54
2020/12/06 09:52:08;;;;;;;30.13;7.90;;;;;;;7.91;23.54;101513.50;10497404;28;20139;-54
2020/12/06 09:57:11;;;;;;;14.68;7.38;;;;;;;5.89;24.71;101514.78;10497047;28;20163;-51
2020/12/06 10:02:12;;;;;;;21.00;7.97;;;;;;;4.50;25.49;101515.97;10497196;28;20041;-51
2020/12/06 10:07:14;;;;;;;18.38;7.07;;;;;;;3.26;26.49;101522.09;10497895;28;20055;-50
2020/12/06 10:12:17;;;;;;;16.90;8.15;;;;;;;2.53;27.28;101523.00;10497422;28;20044;-53
2020/12/06 10:17:18;;;;;;;19.02;6.35;;;;;;;1.86;28.00;101514.06;10497545;28;20067;-52
2020/12/06 10:22:20;;;;;;;19.13;8.77;;;;;;;1.29;28.58;101516.88;10499733;28;20087;-50
2020/12/06 10:27:23;;;;;;;15.38;7.43;;;;;;;0.94;28.87;101518.34;10498955;28;20041;-53
2020/12/06 10:32:24;;;;;;;15.98;6.03;;;;;;;0.73;29.71;101510.91;10497491;28;20044;-54
2020/12/06 10:37:26;;;;;;;12.98;5.90;;;;;;;0.57;30.20;101503.38;10499017;28;20143;-50
2020/12/06 10:42:29;;;;;;;21.58;6.18;;;;;;;0.43;29.98;101511.38;10497655;28;20499;-50
2020/12/06 10:47:30;;;;;;;19.10;7.13;;;;;;;0.32;30.29;101504.63;10496653;28;20484;-58
2020/12/06 10:52:32;;;;;;;17.95;6.00;;;;;;;0.38;30.89;101499.38;10504382;28;20044;-53
2020/12/06 10:57:34;;;;;;;15.40;5.88;;;;;;;0.39;30.92;101496.75;10505342;28;20059;-51
2020/12/06 11:02:36;;;;;;;23.88;7.43;;;;;;;0.39;30.79;101512.28;10504922;28;20044;-52
2020/12/06 11:07:38;;;;;;;25.55;8.18;;;;;;;0.32;30.89;101508.06;10504071;28;20061;-52
2020/12/06 11:12:40;;;;;;;25.35;7.50;;;;;;;0.37;31.25;101510.56;10505113;28;20048;-51
2020/12/06 11:17:42;;;;;;;21.55;6.00;;;;;;;0.43;31.25;101507.91;10504371;28;20124;-52
2020/12/06 11:22:44;;;;;;;19.25;8.77;;;;;;;0.47;31.23;101506.16;10505315;28;20041;-50
2020/12/06 11:27:46;;;;;;;18.98;6.63;;;;;;;0.47;31.02;101500.97;10503212;28;20442;-54
2020/12/06 11:32:48;;;;;;;14.18;6.40;;;;;;;0.45;31.26;101496.66;10502254;28;20055;-52
2020/12/06 11:37:50;;;;;;;19.08;7.00;;;;;;;0.46;31.38;101500.09;10502276;28;20685;-50
2020/12/06 11:42:52;;;;;;;21.65;5.55;;;;;;;0.45;31.79;101501.84;10501712;28;20040;-52
2020/12/06 11:47:54;;;;;;;25.23;7.72;;;;;;;0.39;31.34;101499.34;10501184;28;20052;-51
2020/12/06 11:52:55;;;;;;;19.80;6.38;;;;;;;0.41;31.56;101505.34;10502335;28;20055;-53
2020/12/06 11:57:58;;;;;;;17.98;7.07;;;;;;;0.49;31.86;101505.22;10460335;28;20065;-50
2020/12/06 12:03:00;;;;;;;22.40;7.43;;;;;;;0.44;32.17;101504.47;10459904;28;20056;-51
2020/12/06 12:08:02;;;;;;;22.38;7.53;;;;;;;0.33;31.94;101508.91;10493239;28;20052;-54
2020/12/06 12:13:05;;;;;;;16.05;6.05;;;;;;;0.28;32.02;101505.53;10503856;28;20058;-51
2020/12/06 12:18:07;;;;;;;19.15;5.85;;;;;;;0.21;31.93;101515.09;10501592;28;20060;-54
2020/12/06 12:23:08;;;;;;;11.80;4.38;;;;;;;0.07;32.51;101512.72;10501344;28;20041;-51
2020/12/06 12:28:11;;;;;;;16.67;5.00;;;;;;;0.03;32.40;101518.78;10500945;28;20063;-53
2020/12/06 12:33:13;;;;;;;13.35;4.57;;;;;;;-0.02;32.39;101513.69;10500095;28;20049;-51
2020/12/06 12:38:14;;;;;;;11.20;6.05;;;;;;;-0.12;32.49;101522.44;10501228;28;20059;-50
2020/12/06 12:43:17;;;;;;;15.00;6.10;;;;;;;-0.23;32.38;101516.53;10500606;28;20067;-55
2020/12/06 12:48:19;;;;;;;15.70;5.57;;;;;;;-0.35;32.58;101521.84;10499336;28;20135;-50
2020/12/06 12:53:20;;;;;;;15.77;5.47;;;;;;;-0.45;32.70;101525.41;10499913;28;20056;-54
2020/12/06 12:58:23;;;;;;;21.13;7.05;;;;;;;-0.44;33.18;101532.28;10502273;28;20094;-53
2020/12/06 13:03:25;;;;;;;18.27;5.20;;;;;;;-0.53;33.26;101534.06;10500019;28;20044;-57
2020/12/06 13:08:26;;;;;;;12.77;5.10;;;;;;;-0.68;33.36;101529.06;10499258;28;20063;-52
2020/12/06 13:13:29;;;;;;;16.25;6.15;;;;;;;-0.78;33.09;101533.44;10498271;28;20465;-53
2020/12/06 13:18:30;;;;;;;12.82;5.22;;;;;;;-0.84;33.42;101527.50;10498708;28;20048;-51
2020/12/06 13:23:32;;;;;;;18.20;5.95;;;;;;;-0.95;33.77;101536.19;10498829;28;20052;-52
2020/12/06 13:28:35;;;;;;;13.25;5.28;;;;;;;-1.02;33.64;101538.81;10500202;28;20198;-50
2020/12/06 13:33:39;;;;;;;12.20;5.18;;;;;;;-1.11;34.37;101544.91;10498019;28;20049;-50
2020/12/06 13:38:41;;;;;;;17.27;5.72;;;;;;;-1.25;34.60;101545.03;10498302;28;20105;-50
2020/12/06 13:43:43;;;;;;;16.40;5.68;;;;;;;-1.23;34.24;101555.31;10497638;28;20059;-49
2020/12/06 13:48:45;;;;;;;17.05;4.97;;;;;;;-1.27;34.53;101566.53;10497712;28;20051;-51
2020/12/06 13:53:46;;;;;;;19.35;6.30;;;;;;;-1.37;34.95;101570.06;10497691;28;20499;-51
2020/12/06 13:58:49;;;;;;;18.83;7.10;;;;;;;-1.43;34.93;101574.38;10497442;28;20044;-50
2020/12/06 14:03:51;;;;;;;30.98;8.45;;;;;;;-1.44;35.19;101569.25;10497174;28;20062;-50
2020/12/06 14:08:52;;;;;;;29.67;12.10;;;;;;;-1.58;35.58;101577.03;10498218;28;20056;-50
2020/12/06 14:13:55;;;;;;;29.67;11.18;;;;;;;-1.67;35.65;101574.50;10500617;28;20477;-50
2020/12/06 14:18:57;;;;;;;22.73;9.38;;;;;;;-1.69;35.61;101578.84;10501348;28;20159;-52
2020/12/06 14:23:58;;;;;;;27.75;10.52;;;;;;;-1.76;36.24;101574.56;10504311;28;20052;-52
2020/12/06 14:29:01;;;;;;;27.35;8.90;;;;;;;-1.83;36.40;101568.56;10508343;28;20062;-51
2020/12/06 14:34:03;;;;;;;29.38;10.52;;;;;;;-1.85;36.42;101578.03;10505975;28;20048;-49
2020/12/06 14:39:06;;;;;;;25.20;8.95;;;;;;;-1.92;36.64;101574.63;10505471;28;20055;-50
2020/12/06 14:44:08;;;;;;;19.90;6.47;;;;;;;-1.95;36.74;101574.63;10505033;28;20056;-50
2020/12/06 14:49:10;;;;;;;21.67;10.67;;;;;;;-1.98;36.83;101584.94;10504456;28;20469;-49
2020/12/06 14:54:12;;;;;;;31.05;9.82;;;;;;;-1.98;36.81;101584.94;10504094;28;20501;-50
2020/12/06 14:59:14;;;;;;;22.52;7.60;;;;;;;-2.02;37.08;101593.56;10503676;28;20044;-53
2020/12/06 15:04:16;;;;;;;19.58;6.97;;;;;;;-2.05;37.31;101583.25;10503725;28;20049;-53
2020/12/06 15:09:18;;;;;;;18.35;6.57;;;;;;;-2.11;37.38;101578.13;10502656;28;20098;-51
2020/12/06 15:14:20;;;;;;;19.67;7.57;;;;;;;-2.15;37.42;101581.59;10502906;28;20072;-52
2020/12/06 15:19:22;;;;;;;21.00;8.18;;;;;;;-2.14;37.56;101588.44;10503582;28;20049;-51
2020/12/06 15:24:26;;;;;;;18.35;7.00;;;;;;;-2.14;37.53;101578.13;10503557;28;20143;-51
2020/12/06 15:29:29;;;;;;;16.80;6.72;;;;;;;-2.16;37.82;101575.53;10505101;28;20048;-53
2020/12/06 15:34:31;;;;;;;14.63;6.45;;;;;;;-2.16;37.70;101579.84;10502422;28;20063;-51
2020/12/06 15:39:32;;;;;;;28.08;10.02;;;;;;;-2.21;37.96;101572.16;10502773;28;20047;-50
2020/12/06 15:44:35;;;;;;;23.77;9.13;;;;;;;-2.19;38.00;101579.84;10502372;28;20060;-52
2020/12/06 15:49:38;;;;;;;20.90;10.10;;;;;;;-2.20;38.21;101585.88;10501579;28;20051;-50
2020/12/06 15:54:40;;;;;;;20.25;8.70;;;;;;;-2.30;38.49;101581.63;10501696;28;20071;-51
2020/12/06 15:59:42;;;;;;;25.92;9.65;;;;;;;-2.38;38.37;101585.06;10501851;28;20143;-51
2020/12/06 16:04:44;;;;;;;17.65;7.03;;;;;;;-2.42;38.65;101585.94;10503365;28;20075;-50
2020/12/06 16:09:46;;;;;;;21.58;8.63;;;;;;;-2.48;38.86;101582.50;10503524;28;20040;-58
2020/12/06 16:14:49;;;;;;;28.60;8.23;;;;;;;-2.55;39.35;101586.81;10501806;28;20148;-50
2020/12/06 16:19:50;;;;;;;22.58;9.25;;;;;;;-2.59;39.46;101595.38;10501502;28;20055;-52
2020/12/06 16:24:52;;;;;;;22.88;9.40;;;;;;;-2.61;39.56;101599.69;10504076;28;20052;-51
2020/12/06 16:29:55;;;;;;;19.55;8.40;;;;;;;-2.64;39.83;101600.53;10500512;28;20143;-54
2020/12/06 16:34:56;;;;;;;20.65;8.18;;;;;;;-2.65;39.70;101590.22;10499935;28;20063;-52
2020/12/06 16:39:58;;;;;;;24.48;9.57;;;;;;;-2.63;39.73;101598.81;10500181;28;20052;-53
2020/12/06 16:45:01;;;;;;;20.20;9.15;;;;;;;-2.64;39.79;101600.53;10500811;28;20056;-51
2020/12/06 16:50:03;;;;;;;18.88;6.55;;;;;;;-2.69;39.98;101606.56;10503452;28;20473;-54
2020/12/06 16:55:05;;;;;;;12.77;5.22;;;;;;;-2.72;40.09;101606.56;10498588;28;20396;-49
2020/12/06 17:00:09;;;;;;;21.60;8.45;;;;;;;-2.70;39.98;101622.88;10499613;28;20568;-49
2020/12/06 17:05:11;;;;;;;22.40;9.68;;;;;;;-2.71;39.76;101621.13;10500144;28;20485;-52
2020/12/06 17:10:13;;;;;;;28.58;10.50;;;;;;;-2.72;39.88;101630.56;10499687;28;20041;-53
2020/12/06 17:15:17;;;;;;;19.42;7.80;;;;;;;-2.70;40.28;101643.47;10498135;28;20053;-53
2020/12/06 17:20:19;;;;;;;25.15;10.45;;;;;;;-2.70;39.86;101635.75;10498072;28;20040;-51
2020/12/06 17:25:20;;;;;;;17.98;6.60;;;;;;;-2.76;40.23;101640.88;10498767;28;20053;-53
2020/12/06 17:30:23;;;;;;;24.42;9.07;;;;;;;-2.78;40.15;101644.28;10497725;28;20090;-50
2020/12/06 17:35:25;;;;;;;25.25;9.43;;;;;;;-2.72;40.05;101642.59;10498952;28;20063;-54
2020/12/06 17:40:26;;;;;;;18.67;8.35;;;;;;;-2.78;40.45;101641.72;10498116;28;20052;-53
2020/12/06 17:45:29;;;;;;;20.55;7.65;;;;;;;-2.85;40.13;101634.84;10497441;28;20485;-53
2020/12/06 17:50:31;;;;;;;20.38;8.45;;;;;;;-2.85;40.40;101627.13;10497140;28;20048;-53
2020/12/06 17:55:33;;;;;;;19.95;8.23;;;;;;;-2.79;40.13;101640.00;10497496;28;20056;-49
2020/12/06 18:00:36;;;;;;;18.50;7.53;;;;;;;-2.88;40.43;101629.72;10497139;28;20040;-55
2020/12/06 18:05:37;;;;;;;20.50;7.77;;;;;;;-2.96;40.68;101628.84;10497633;28;20429;-53
2020/12/06 18:10:39;;;;;;;25.58;8.90;;;;;;;-2.99;40.50;101626.25;10498049;28;20041;-51
2020/12/06 18:15:43;;;;;;;24.00;9.43;;;;;;;-2.98;40.49;101624.56;10497453;28;20060;-50
2020/12/06 18:20:44;;;;;;;;;;;;;;;-3.00;40.61;101619.41;10497851;28;20054;-51
2020/12/06 18:25:46;;;;;;;19.35;8.25;;;;;;;-3.07;40.54;101607.41;10496888;28;19924;-50
2020/12/06 18:30:49;;;;;;;17.10;8.13;;;;;;;-3.14;40.50;101610.78;10499013;28;20041;-50
2020/12/06 18:35:51;;;;;;;17.43;7.77;;;;;;;-3.22;40.96;101621.09;10497550;28;20048;-53
2020/12/06 18:40:53;;;;;;;16.92;6.50;;;;;;;-3.31;41.20;101627.06;10496854;28;20064;-50
2020/12/06 18:45:55;;;;;;;20.75;6.88;;;;;;;-3.44;41.50;101630.47;10498680;28;20055;-51
2020/12/06 18:50:57;;;;;;;20.35;8.88;;;;;;;-3.53;42.12;101630.44;10497732;28;20036;-51
2020/12/06 18:55:58;;;;;;;21.10;9.18;;;;;;;-3.61;41.82;101647.53;10495335;28;20436;-53
2020/12/06 19:01:02;;;;;;;16.13;6.22;;;;;;;-3.67;41.86;101644.94;10496021;28;20048;-50
2020/12/06 19:06:04;;;;;;;20.50;8.00;;;;;;;-3.72;42.05;101648.34;10496818;28;20094;-49
2020/12/06 19:11:09;;;;;;;19.98;7.90;;;;;;;-3.84;42.33;101645.72;10500576;28;20132;-49
2020/12/06 19:16:12;;;;;;;21.98;8.73;;;;;;;-3.86;42.51;101654.25;10504270;28;20135;-50
2020/12/06 19:21:15;;;;;;;24.02;10.15;;;;;;;-3.89;42.66;101649.97;10503709;28;20059;-50
2020/12/06 19:26:16;;;;;;;21.50;6.72;;;;;;;-3.92;42.71;101641.38;10502040;28;20106;-50
2020/12/06 19:31:19;;;;;;;24.48;9.90;;;;;;;-3.98;42.91;101637.06;10502958;28;20319;-50
2020/12/06 19:36:20;;;;;;;23.50;7.95;;;;;;;-4.09;43.29;101637.03;10502824;28;20058;-53
2020/12/06 19:41:22;;;;;;;20.73;6.80;;;;;;;-4.22;43.72;101630.94;10503221;28;20051;-54
2020/12/06 19:46:25;;;;;;;23.60;8.50;;;;;;;-4.29;44.06;101629.19;10503111;28;20052;-50
2020/12/06 19:51:26;;;;;;;25.02;9.18;;;;;;;-4.33;44.25;101630.00;10503339;28;20041;-50
2020/12/06 19:56:28;;;;;;;18.33;8.20;;;;;;;-4.33;44.20;101632.59;10502094;28;20060;-52
2020/12/06 20:01:31;;;;;;;18.65;7.45;;;;;;;-4.36;44.37;101637.69;10503293;28;20040;-53
2020/12/06 20:06:33;;;;;;;21.50;8.35;;;;;;;-4.42;44.73;101625.66;10502155;28;20056;-49
2020/12/06 20:11:34;;;;;;;26.20;8.88;;;;;;;-4.48;45.04;101619.63;10502416;28;20049;-51
2020/12/06 20:16:40;;;;;;;19.77;8.02;;;;;;;-4.56;45.00;101618.72;10502508;28;20062;-50
2020/12/06 20:21:42;;;;;;;18.08;5.05;;;;;;;-4.64;45.40;101627.22;10501837;28;20399;-52
2020/12/06 20:26:48;;;;;;;12.43;5.55;;;;;;;-4.71;45.84;101628.03;10501900;28;20048;-49
2020/12/06 20:31:52;;;;;;;17.17;5.75;;;;;;;-4.79;46.10;101623.66;10500923;28;20059;-50
2020/12/06 20:36:53;;;;;;;10.10;4.20;;;;;;;-4.89;46.63;101615.91;10500679;28;20066;-51
2020/12/06 20:41:55;;;;;;;15.95;6.28;;;;;;;-4.98;46.94;101623.50;10500354;28;20049;-49
2020/12/06 20:46:58;;;;;;;11.65;4.00;;;;;;;-5.05;47.45;101626.00;10500751;28;20052;-53
2020/12/06 20:52:01;;;;;;;10.30;3.67;;;;;;;-5.13;47.74;101631.91;10500031;28;20050;-51
2020/12/06 20:57:02;;;;;;;22.27;8.00;;;;;;;-5.16;47.79;101624.19;10498807;28;20118;-49
2020/12/06 21:02:05;;;;;;;19.02;6.78;;;;;;;-5.17;47.55;101630.16;10499644;28;20054;-51
2020/12/06 21:07:07;;;;;;;13.30;4.60;;;;;;;-5.17;47.93;101632.72;10499327;28;20055;-52
2020/12/06 21:12:09;;;;;;;14.77;5.22;;;;;;;-5.20;48.27;101631.81;10499958;28;20044;-53
2020/12/06 21:17:11;;;;;;;15.93;5.32;;;;;;;-5.20;48.22;101631.81;10500632;28;20059;-50
2020/12/06 21:22:13;;;;;;;23.60;5.87;;;;;;;-5.19;48.04;101636.13;10499164;28;20052;-52
2020/12/06 21:27:14;;;;;;;9.13;4.00;;;;;;;-5.20;48.30;101635.25;10498959;28;20048;-50
2020/12/06 21:32:17;;;;;;;9.55;3.95;;;;;;;-5.28;48.63;101634.31;10498118;28;20056;-52
2020/12/06 21:37:19;;;;;;;11.07;4.00;;;;;;;-5.35;48.92;101642.78;10499028;28;20052;-50
2020/12/06 21:42:20;;;;;;;9.93;3.90;;;;;;;-5.36;48.86;101648.75;10495879;28;20466;-51
2020/12/06 21:47:23;;;;;;;17.38;7.45;;;;;;;-5.36;48.86;101653.88;10498303;28;20052;-53
2020/12/06 21:52:24;;;;;;;11.68;4.00;;;;;;;-5.34;49.00;101652.19;10498819;28;20044;-53
2020/12/06 21:57:26;;;;;;;14.98;5.30;;;;;;;-5.37;49.02;101650.44;10497739;28;20606;-50
2020/12/06 22:02:29;;;;;;;21.27;6.15;;;;;;;-5.32;48.86;101658.22;10498984;28;20044;-52
2020/12/06 22:07:30;;;;;;;15.50;5.18;;;;;;;-5.27;48.92;101655.69;10498796;28;20059;-53
2020/12/06 22:12:32;;;;;;;16.10;5.75;;;;;;;-5.28;49.04;101652.25;10497573;28;20135;-53
2020/12/06 22:17:35;;;;;;;22.52;6.28;;;;;;;-5.24;48.89;101653.16;10497845;28;20058;-49
2020/12/06 22:22:37;;;;;;;15.30;4.93;;;;;;;-5.26;48.93;101648.03;10479644;28;20394;-51
2020/12/06 22:27:39;;;;;;;15.23;5.38;;;;;;;-5.26;48.84;101648.03;10495992;28;20477;-53
2020/12/06 22:32:41;;;;;;;20.08;5.40;;;;;;;-5.33;49.09;101629.16;10496773;28;20560;-50
2020/12/06 22:37:43;;;;;;;14.65;5.95;;;;;;;-5.34;49.33;101639.38;10497198;28;20182;-49
2020/12/06 22:42:45;;;;;;;10.90;5.05;;;;;;;-5.38;49.49;101640.19;10497825;28;20055;-50
2020/12/06 22:47:47;;;;;;;12.82;4.78;;;;;;;-5.42;49.72;101630.72;10504530;28;20059;-50
2020/12/06 22:52:49;;;;;;;10.70;4.70;;;;;;;-5.44;49.85;101624.75;10504614;28;20048;-50
2020/12/06 22:57:50;;;;;;;13.93;4.65;;;;;;;-5.47;50.08;101622.16;10505487;28;20060;-54